Time;durP1;ratioP1;P1;durP2;ratioP2;P2;SDS_P1;SDS_P2;PMS_P1;PMS_P2;Temp;Humidity;BMP_temperature;BMP_pressure;BME280_temperature;BME280_humidity;BME280_pressure;Samples;Min_cycle;Max_cycle;Signal;HPM_P1;HPM_P2
2022/06/18 00:01:35;;;;;;;4.62;3.70;;;;;;;14.47;86.38;99664.84;1659039;86;21083;-83
2022/06/18 00:04:12;;;;;;;4.10;3.70;;;;;;;14.45;86.20;99662.70;1658699;86;21174;-83
2022/06/18 00:07:01;;;;;;;5.97;3.50;;;;;;;14.45;86.12;99665.83;1658881;86;21171;-82
2022/06/18 00:09:41;;;;;;;8.48;3.85;;;;;;;14.46;86.03;99661.79;1628112;86;21062;-82
2022/06/18 00:15:16;;;;;;;3.70;3.45;;;;;;;14.45;85.97;99654.77;1643907;87;21020;-83
2022/06/18 00:17:45;;;;;;;5.08;3.70;;;;;;;14.43;85.97;99647.38;1643899;87;21636;-84
2022/06/18 00:20:13;;;;;;;8.05;4.12;;;;;;;14.45;85.87;99654.77;1643888;87;21664;-82
2022/06/18 00:22:42;;;;;;;5.40;3.35;;;;;;;14.44;85.84;99653.06;1643930;87;21087;-82
2022/06/18 00:25:37;;;;;;;3.95;3.30;;;;;;;14.44;85.65;99646.45;1644210;87;21039;-82
2022/06/18 00:28:20;;;;;;;3.50;3.22;;;;;;;14.44;85.71;99649.09;1658873;86;21172;-80
2022/06/18 00:30:48;;;;;;;13.43;3.27;;;;;;;14.49;85.63;99643.55;1658828;86;21146;-82
2022/06/18 00:33:16;;;;;;;4.50;3.92;;;;;;;14.54;85.48;99638.05;1658900;86;21081;-81
2022/06/18 00:35:45;;;;;;;3.95;3.65;;;;;;;14.54;85.35;99637.59;1658799;86;21054;-80
2022/06/18 00:38:22;;;;;;;4.75;3.65;;;;;;;14.55;85.24;99643.74;1658981;86;21195;-83
2022/06/18 00:40:48;;;;;;;6.25;4.17;;;;;;;14.55;85.25;99651.69;1658957;86;21097;-82
2022/06/18 00:43:23;;;;;;;6.50;3.90;;;;;;;14.46;85.35;99651.20;1658920;86;21128;-83
2022/06/18 00:45:52;;;;;;;4.22;3.83;;;;;;;14.39;85.64;99656.41;1658982;86;21129;-81
2022/06/18 00:48:27;;;;;;;5.65;3.77;;;;;;;14.29;86.01;99652.48;1634249;86;21106;-84
2022/06/18 00:50:59;;;;;;;8.15;3.98;;;;;;;14.23;86.32;99650.97;1674011;85;21169;-84
2022/06/18 00:53:35;;;;;;;6.08;3.67;;;;;;;14.16;86.70;99653.52;1674170;85;21107;-84
2022/06/18 00:56:07;;;;;;;5.62;4.53;;;;;;;14.09;86.96;99649.46;1674115;85;21177;-84
2022/06/18 00:58:45;;;;;;;4.47;4.00;;;;;;;14.01;87.42;99643.19;1640284;87;21027;-84
2022/06/18 01:01:22;;;;;;;5.78;4.47;;;;;;;13.93;87.85;99650.15;1674349;85;21074;-83
2022/06/18 01:03:50;;;;;;;5.75;4.25;;;;;;;13.86;88.17;99653.16;1674324;85;21153;-82
2022/06/18 01:06:24;;;;;;;5.25;4.40;;;;;;;13.80;88.63;99651.67;1674327;85;21157;-84
2022/06/18 01:09:00;;;;;;;5.92;5.03;;;;;;;13.74;88.91;99646.66;1645723;87;21121;-83
2022/06/18 01:11:31;;;;;;;6.03;3.90;;;;;;;13.73;89.33;99649.77;1643748;87;21118;-82
2022/06/18 01:13:58;;;;;;;4.20;3.80;;;;;;;13.69;89.54;99646.85;1658789;85;21176;-83
2022/06/18 01:16:25;;;;;;;4.80;3.92;;;;;;;13.69;89.83;99650.81;1674138;85;21051;-79
2022/06/18 01:18:52;;;;;;;5.30;4.25;;;;;;;13.68;90.18;99647.77;1645109;87;21132;-81
2022/06/18 01:21:53;;;;;;;5.90;4.30;;;;;;;13.69;90.28;99641.56;1645342;87;21790;-83
2022/06/18 01:24:22;;;;;;;5.12;4.62;;;;;;;13.71;90.28;99642.34;1658670;85;21565;-82
2022/06/18 01:26:52;;;;;;;5.40;5.00;;;;;;;13.74;90.35;99639.56;1674170;85;21053;-82
2022/06/18 01:29:20;;;;;;;7.28;4.95;;;;;;;13.75;90.35;99649.23;1645423;87;21109;-84
2022/06/18 01:31:48;;;;;;;5.55;5.05;;;;;;;13.73;90.28;99640.52;1645297;87;21146;-82
2022/06/18 01:34:15;;;;;;;6.17;5.22;;;;;;;13.78;90.28;99642.08;1645329;86;21133;-83
2022/06/18 01:36:43;;;;;;;6.55;5.95;;;;;;;13.83;90.26;99641.40;1673429;85;22086;-83
2022/06/18 01:39:13;;;;;;;5.90;5.30;;;;;;;13.87;90.13;99645.61;1674295;85;21598;-82
2022/06/18 01:41:49;;;;;;;7.00;4.33;;;;;;;13.90;90.00;99634.45;1621447;87;21039;-82
2022/06/18 01:44:48;;;;;;;4.37;3.98;;;;;;;13.94;89.88;99632.52;1673701;85;22227;-81
2022/06/18 01:47:31;;;;;;;4.28;3.98;;;;;;;14.01;89.68;99627.80;1673943;85;21922;-82
2022/06/18 01:50:23;;;;;;;4.40;4.00;;;;;;;14.06;89.42;99620.02;1671774;85;21106;-83
2022/06/18 01:52:58;;;;;;;5.20;3.77;;;;;;;14.11;89.19;99625.95;1674370;85;21534;-82
2022/06/18 01:55:35;;;;;;;3.83;3.50;;;;;;;14.19;88.95;99628.69;1674417;85;21079;-82
2022/06/18 01:58:11;;;;;;;4.67;4.00;;;;;;;14.25;88.67;99629.73;1674329;85;21115;-81
2022/06/18 02:00:39;;;;;;;4.37;4.08;;;;;;;14.27;88.39;99626.09;1674069;85;21130;-81
2022/06/18 02:03:06;;;;;;;4.87;3.92;;;;;;;14.29;88.15;99627.34;1627436;85;21031;-82
2022/06/18 02:05:34;;;;;;;4.65;3.67;;;;;;;14.31;88.03;99625.47;1674084;85;21093;-81
2022/06/18 02:08:01;;;;;;;8.88;5.70;;;;;;;14.35;87.98;99619.09;1674167;85;21123;-82
2022/06/18 02:10:33;;;;;;;8.03;5.65;;;;;;;14.38;87.74;99616.77;1674290;85;21202;-81
2022/06/18 02:13:01;;;;;;;10.35;6.53;;;;;;;14.39;87.58;99610.08;1649270;85;21201;-84
2022/06/18 02:15:41;;;;;;;9.90;5.53;;;;;;;14.43;87.40;99612.11;1674299;85;21106;-79
2022/06/18 02:18:11;;;;;;;8.25;5.67;;;;;;;14.46;87.27;99606.19;1674370;85;21154;-82
2022/06/18 02:20:45;;;;;;;6.12;5.40;;;;;;;14.51;87.06;99615.23;1674101;85;21593;-82
2022/06/18 02:23:11;;;;;;;7.45;5.35;;;;;;;14.53;87.04;99619.98;1674052;85;21158;-83
2022/06/18 02:25:40;;;;;;;6.95;5.37;;;;;;;14.53;86.89;99613.36;1673305;85;22268;-83
2022/06/18 02:28:32;;;;;;;6.03;4.47;;;;;;;14.50;86.87;99622.30;1674079;85;21074;-81
2022/06/18 02:31:01;;;;;;;6.95;4.33;;;;;;;14.44;86.89;99613.36;1674464;85;21094;-83
2022/06/18 02:33:48;;;;;;;5.37;4.40;;;;;;;14.42;87.05;99615.20;1674267;85;21126;-83
2022/06/18 02:36:27;;;;;;;4.45;3.90;;;;;;;14.44;87.02;99621.30;1674050;85;21074;-83
2022/06/18 02:38:58;;;;;;;5.65;4.00;;;;;;;14.46;87.03;99622.08;1674154;85;22040;-83
2022/06/18 02:41:24;;;;;;;6.62;4.15;;;;;;;14.52;86.88;99622.70;1673883;85;21091;-82
2022/06/18 02:43:51;;;;;;;4.92;4.50;;;;;;;14.55;86.86;99622.56;1674148;85;21145;-83
2022/06/18 02:46:19;;;;;;;4.65;4.28;;;;;;;14.54;86.80;99624.80;1674198;85;21124;-84
2022/06/18 02:48:45;;;;;;;5.45;4.42;;;;;;;14.52;86.74;99630.17;1674414;85;21130;-82
2022/06/18 02:51:13;;;;;;;4.30;4.00;;;;;;;14.45;86.78;99629.61;1673734;85;21676;-82
2022/06/18 02:53:41;;;;;;;5.42;4.50;;;;;;;14.42;86.88;99635.53;1645988;87;21077;-84
2022/06/18 02:56:13;;;;;;;4.85;4.45;;;;;;;14.36;87.03;99635.37;1647146;87;21071;-84
2022/06/18 02:58:44;;;;;;;4.35;3.95;;;;;;;14.31;87.21;99634.73;1646916;87;21035;-85
2022/06/18 03:01:17;;;;;;;5.42;4.42;;;;;;;14.28;87.46;99638.84;1647422;87;21174;-83
2022/06/18 03:03:49;;;;;;;8.88;4.87;;;;;;;14.29;87.81;99640.58;1624414;87;21083;-83
2022/06/18 03:06:17;;;;;;;5.58;4.60;;;;;;;14.29;87.98;99632.64;1647111;87;21102;-85
2022/06/18 03:08:48;;;;;;;5.62;5.05;;;;;;;14.29;88.08;99633.96;1646934;87;21059;-85
2022/06/18 03:14:04;;;;;;;5.97;5.47;;;;;;;14.33;88.44;99630.70;1646903;87;21544;-82
2022/06/18 03:16:31;;;;;;;6.97;5.70;;;;;;;14.32;88.58;99635.11;1646905;87;21140;-79
2022/06/18 03:18:58;;;;;;;5.87;5.35;;;;;;;14.32;88.71;99641.73;1647091;87;21010;-83
2022/06/18 03:21:44;;;;;;;7.60;5.45;;;;;;;14.34;88.74;99642.53;1647187;87;21157;-82
2022/06/18 03:24:11;;;;;;;7.60;6.37;;;;;;;14.36;88.78;99645.96;1647079;87;21101;-81
2022/06/18 03:26:39;;;;;;;6.87;6.12;;;;;;;14.37;88.78;99645.01;1646894;87;21108;-84
2022/06/18 03:29:09;;;;;;;6.47;5.87;;;;;;;14.39;88.83;99643.61;1647002;87;21655;-85
2022/06/18 03:31:38;;;;;;;8.20;5.78;;;;;;;14.40;88.77;99645.34;1646749;87;22160;-85
2022/06/18 03:34:05;;;;;;;7.00;6.37;;;;;;;14.38;88.79;99645.41;1647388;87;21661;-84
2022/06/18 03:36:32;;;;;;;8.70;7.78;;;;;;;14.34;88.92;99650.48;1646697;87;21624;-81
2022/06/18 03:38:59;;;;;;;7.20;6.53;;;;;;;14.28;89.04;99646.31;1647152;87;21891;-83
2022/06/18 03:41:26;;;;;;;7.58;6.78;;;;;;;14.26;89.19;99649.98;1647184;87;22198;-83
2022/06/18 03:43:54;;;;;;;7.33;6.60;;;;;;;14.23;89.35;99647.48;1663057;85;21078;-85
2022/06/18 03:46:21;;;;;;;9.20;7.50;;;;;;;14.25;89.57;99646.93;1673749;85;21172;-83
2022/06/18 03:48:54;;;;;;;8.80;7.90;;;;;;;14.27;89.59;99648.59;1674005;85;21098;-85
2022/06/18 03:51:23;;;;;;;7.60;6.90;;;;;;;14.26;89.59;99643.36;1662976;84;21061;-84
2022/06/18 03:53:50;;;;;;;15.63;7.10;;;;;;;14.31;89.69;99649.30;1660391;86;22204;-84
2022/06/18 03:56:20;;;;;;;8.50;7.58;;;;;;;14.35;89.58;99645.55;1660158;86;21006;-82
2022/06/18 03:58:48;;;;;;;9.18;8.05;;;;;;;14.40;89.54;99642.70;1660622;85;21559;-84
2022/06/18 04:01:19;;;;;;;9.75;8.73;;;;;;;14.42;89.44;99645.64;1660353;86;22001;-83
2022/06/18 04:03:46;;;;;;;9.10;7.75;;;;;;;14.46;89.29;99640.61;1660716;86;21571;-85
2022/06/18 04:06:15;;;;;;;9.83;8.83;;;;;;;14.50;89.02;99638.19;1659744;85;21099;-83
2022/06/18 04:08:44;;;;;;;11.73;9.70;;;;;;;14.58;88.98;99643.59;1645198;86;21089;-84
2022/06/18 04:11:20;;;;;;;9.48;8.53;;;;;;;14.61;88.59;99639.52;1632119;87;22112;-82
2022/06/18 04:13:47;;;;;;;12.90;9.05;;;;;;;14.65;88.26;99642.38;1645417;87;21565;-85
2022/06/18 04:16:16;;;;;;;11.78;9.18;;;;;;;14.70;88.04;99642.16;1642332;87;21146;-83
2022/06/18 04:18:43;;;;;;;12.53;9.15;;;;;;;14.72;87.89;99645.11;1645205;87;21852;-83
2022/06/18 04:21:14;;;;;;;11.05;8.73;;;;;;;14.78;87.81;99647.47;1645348;87;20935;-85
2022/06/18 04:23:42;;;;;;;12.82;8.33;;;;;;;14.84;87.57;99649.81;1660166;86;21150;-84
2022/06/18 04:26:10;;;;;;;10.43;9.20;;;;;;;14.94;87.16;99653.31;1660745;86;22116;-81
2022/06/18 04:28:39;;;;;;;14.33;9.40;;;;;;;15.00;86.98;99651.21;1660473;86;21134;-85
2022/06/18 04:31:10;;;;;;;17.55;10.30;;;;;;;15.05;86.70;99650.98;1659006;86;21163;-85
2022/06/18 04:33:38;;;;;;;12.00;9.10;;;;;;;15.11;86.61;99653.30;1660300;86;21090;-85
2022/06/18 04:36:22;;;;;;;11.40;9.05;;;;;;;15.18;86.36;99655.17;1659579;86;21165;-86
2022/06/18 04:38:50;;;;;;;;;;;;;;;15.23;85.88;99652.69;1661762;86;21201;-83
2022/06/18 04:41:25;;;;;;;12.23;9.33;;;;;;;15.23;85.33;99651.37;1648007;86;20186;-82
2022/06/18 04:43:53;;;;;;;11.25;8.78;;;;;;;15.23;85.09;99654.46;1692437;84;21098;-85
2022/06/18 04:46:19;;;;;;;11.55;9.70;;;;;;;15.22;85.00;99654.94;1632131;87;21048;-83
2022/06/18 04:48:48;;;;;;;12.47;9.98;;;;;;;15.22;84.90;99656.27;1645261;87;21502;-80
2022/06/18 04:51:14;;;;;;;12.90;9.65;;;;;;;15.24;84.74;99659.69;1638586;85;21178;-83
2022/06/18 04:53:41;;;;;;;12.82;9.63;;;;;;;15.22;84.62;99664.22;1606890;89;21152;-82
2022/06/18 04:56:10;;;;;;;12.20;10.15;;;;;;;15.19;84.66;99664.38;1633146;86;21152;-85
2022/06/18 04:58:38;;;;;;;13.78;9.95;;;;;;;15.24;84.61;99659.69;1632860;87;21083;-84
2022/06/18 05:01:05;;;;;;;15.43;10.15;;;;;;;15.32;84.37;99663.76;1606748;89;21038;-86
2022/06/18 05:03:48;;;;;;;15.65;11.10;;;;;;;15.38;84.08;99664.74;1632440;87;21178;-85
2022/06/18 05:06:17;;;;;;;14.03;9.80;;;;;;;15.47;84.40;99660.30;1628855;87;21122;-86
2022/06/18 05:08:48;;;;;;;16.10;10.00;;;;;;;15.58;84.21;99667.23;1630360;87;21309;-83
2022/06/18 05:11:16;;;;;;;10.75;9.35;;;;;;;15.70;83.88;99677.66;1577837;90;21060;-84
2022/06/18 05:13:49;;;;;;;14.83;9.83;;;;;;;15.81;83.64;99681.08;1633942;87;21076;-82
2022/06/18 05:16:24;;;;;;;11.25;9.28;;;;;;;15.91;83.04;99688.94;1639893;87;21062;-84
2022/06/18 05:18:51;;;;;;;10.18;9.03;;;;;;;16.00;82.51;99685.40;1640133;87;21126;-84
2022/06/18 05:21:18;;;;;;;10.40;8.88;;;;;;;16.13;82.53;99693.08;1640511;87;21155;-83
2022/06/18 05:23:44;;;;;;;12.93;9.05;;;;;;;16.22;82.19;99695.21;1633070;87;21155;-82
2022/06/18 05:26:14;;;;;;;14.93;10.03;;;;;;;16.30;81.86;99694.32;1632655;87;21154;-85
2022/06/18 05:28:41;;;;;;;13.45;9.23;;;;;;;16.42;81.71;99691.45;1633158;87;21107;-85
2022/06/18 05:31:08;;;;;;;14.20;9.58;;;;;;;16.52;81.00;99690.47;1633127;87;21035;-84
2022/06/18 05:33:35;;;;;;;10.20;9.20;;;;;;;16.56;80.41;99697.79;1633017;87;22235;-85
2022/06/18 05:36:04;;;;;;;10.53;9.35;;;;;;;16.52;79.57;99703.75;1633083;87;21035;-84
2022/06/18 05:38:31;;;;;;;11.38;9.70;;;;;;;16.43;80.26;99700.30;1632556;87;21598;-86
2022/06/18 05:40:59;;;;;;;10.25;8.40;;;;;;;16.40;80.28;99698.66;1606808;89;21046;-86
2022/06/18 05:43:25;;;;;;;14.63;8.68;;;;;;;16.39;80.08;99694.30;1633036;87;21098;-84
2022/06/18 05:45:53;;;;;;;13.03;9.03;;;;;;;16.42;80.27;99701.23;1633202;87;21598;-84
2022/06/18 05:48:20;;;;;;;9.70;8.70;;;;;;;16.45;79.96;99696.59;1633040;87;22282;-82
2022/06/18 05:50:47;;;;;;;11.83;8.68;;;;;;;16.52;80.17;99701.97;1609916;88;21874;-83
2022/06/18 05:53:14;;;;;;;9.58;7.78;;;;;;;16.59;79.41;99701.13;1626898;86;21812;-85
2022/06/18 05:55:49;;;;;;;8.85;7.95;;;;;;;16.65;79.36;99699.45;1645156;86;21199;-85
2022/06/18 05:58:23;;;;;;;13.40;7.87;;;;;;;16.76;79.50;99696.66;1655851;86;21244;-85
2022/06/18 06:00:52;;;;;;;10.38;8.50;;;;;;;16.88;79.06;99702.16;1657968;86;21155;-87
2022/06/18 06:03:19;;;;;;;10.10;8.40;;;;;;;16.90;78.10;99697.61;1658366;86;21108;-83
2022/06/18 06:05:46;;;;;;;9.10;7.45;;;;;;;16.89;78.30;99699.91;1658173;86;21045;-85
2022/06/18 06:08:14;;;;;;;10.68;7.25;;;;;;;16.94;78.67;99692.97;1658020;86;21089;-83
2022/06/18 06:13:28;;;;;;;8.85;7.00;;;;;;;17.17;77.90;99693.44;1637527;86;21061;-84
2022/06/18 06:15:56;;;;;;;10.72;6.80;;;;;;;17.34;76.88;99699.08;1658067;86;21152;-82
2022/06/18 06:18:23;;;;;;;8.65;5.87;;;;;;;17.49;76.26;99706.63;1658135;86;21109;-84
2022/06/18 06:20:53;;;;;;;7.37;5.85;;;;;;;17.57;75.49;99697.70;1658253;86;21646;-82
2022/06/18 06:23:19;;;;;;;7.10;6.30;;;;;;;17.61;75.10;99711.19;1658103;86;21138;-83
2022/06/18 06:25:47;;;;;;;8.18;6.53;;;;;;;17.65;75.16;99704.72;1657719;85;21104;-84
2022/06/18 06:28:23;;;;;;;6.30;5.70;;;;;;;17.69;74.82;99706.27;1657886;85;21037;-84
2022/06/18 06:30:50;;;;;;;6.78;5.53;;;;;;;17.86;75.52;99705.22;1658379;86;21135;-84
2022/06/18 06:33:18;;;;;;;8.05;5.53;;;;;;;18.08;75.75;99704.77;1657763;86;21078;-85
2022/06/18 06:35:46;;;;;;;7.20;6.20;;;;;;;18.25;74.19;99713.51;1658276;86;21102;-86
2022/06/18 06:38:12;;;;;;;9.48;5.40;;;;;;;18.35;73.34;99706.64;1657891;86;21163;-84
2022/06/18 06:40:40;;;;;;;6.55;4.47;;;;;;;18.47;73.77;99707.66;1658266;86;21176;-86
2022/06/18 06:43:07;;;;;;;6.22;5.22;;;;;;;18.62;73.16;99700.49;1657909;86;22106;-85
2022/06/18 06:45:34;;;;;;;7.33;5.00;;;;;;;18.70;71.48;99708.84;1652023;86;21093;-84
2022/06/18 06:48:01;;;;;;;5.97;4.90;;;;;;;18.73;71.33;99709.98;1612770;88;21120;-85
2022/06/18 06:50:28;;;;;;;5.50;4.47;;;;;;;18.79;71.35;99708.22;1612740;87;21061;-86
2022/06/18 06:52:55;;;;;;;7.58;4.62;;;;;;;18.88;70.98;99717.00;1636054;87;21205;-83
2022/06/18 06:58:12;;;;;;;7.65;5.50;;;;;;;19.07;71.22;99706.44;1636442;87;21092;-84
2022/06/18 07:00:44;;;;;;;9.35;5.75;;;;;;;19.16;70.26;99711.14;1636414;87;21067;-85
2022/06/18 07:03:12;;;;;;;6.97;5.35;;;;;;;19.20;69.83;99714.45;1636370;87;21083;-84
2022/06/18 07:05:39;;;;;;;6.33;5.42;;;;;;;19.19;68.98;99710.95;1636536;87;21603;-85
2022/06/18 07:08:07;;;;;;;6.62;5.12;;;;;;;19.19;69.18;99713.61;1636005;87;21102;-84
2022/06/18 07:10:34;;;;;;;6.97;4.25;;;;;;;19.18;69.01;99715.92;1636285;87;21071;-82
2022/06/18 07:13:00;;;;;;;6.33;5.33;;;;;;;19.19;68.98;99718.10;1636078;87;21785;-81
2022/06/18 07:15:26;;;;;;;5.67;5.15;;;;;;;19.18;68.59;99714.59;1636465;87;21548;-84
2022/06/18 07:17:55;;;;;;;10.43;5.22;;;;;;;19.18;68.81;99719.92;1636377;87;21614;-84
2022/06/18 07:20:22;;;;;;;5.95;5.45;;;;;;;19.17;68.73;99720.87;1636268;87;21530;-83
2022/06/18 07:22:49;;;;;;;6.60;6.00;;;;;;;19.12;68.54;99725.66;1636366;87;21079;-83
2022/06/18 07:25:17;;;;;;;6.80;5.78;;;;;;;19.05;68.12;99724.37;1636342;87;21563;-84
2022/06/18 07:27:44;;;;;;;7.08;5.83;;;;;;;18.92;68.62;99725.16;1636229;87;21060;-83
2022/06/18 07:30:11;;;;;;;5.90;5.20;;;;;;;18.82;68.97;99734.69;1636520;87;21593;-83
2022/06/18 07:32:43;;;;;;;4.80;4.40;;;;;;;18.75;68.75;99732.05;1636279;87;21534;-85
2022/06/18 07:35:11;;;;;;;6.22;4.47;;;;;;;18.70;68.64;99735.50;1636276;87;21115;-84
2022/06/18 07:37:39;;;;;;;7.17;4.78;;;;;;;18.62;68.47;99735.98;1619715;87;21199;-83
2022/06/18 07:40:06;;;;;;;5.90;5.33;;;;;;;18.63;69.24;99736.86;1636479;87;21078;-84
2022/06/18 07:42:33;;;;;;;6.25;5.60;;;;;;;18.70;69.05;99728.83;1636312;87;20900;-82
2022/06/18 07:44:59;;;;;;;6.30;5.55;;;;;;;18.75;69.12;99732.05;1636092;87;21158;-84
2022/06/18 07:47:26;;;;;;;5.03;4.62;;;;;;;18.81;69.36;99730.33;1636586;87;21110;-83
2022/06/18 07:49:53;;;;;;;7.50;4.83;;;;;;;18.87;68.95;99733.09;1636097;87;21215;-85
2022/06/18 07:52:20;;;;;;;5.78;5.20;;;;;;;18.87;67.86;99732.61;1636107;87;21099;-84
2022/06/18 07:54:47;;;;;;;5.25;3.98;;;;;;;18.88;68.17;99735.66;1636291;87;21143;-78
2022/06/18 07:57:13;;;;;;;4.85;3.77;;;;;;;18.91;67.33;99728.80;1636643;87;21110;-84
2022/06/18 07:59:40;;;;;;;4.58;4.10;;;;;;;18.96;66.95;99728.95;1637048;87;21087;-82
2022/06/18 08:02:09;;;;;;;3.95;3.58;;;;;;;19.02;66.50;99735.23;1642116;86;21128;-84
2022/06/18 08:04:37;;;;;;;5.25;4.75;;;;;;;19.12;66.70;99732.33;1639053;87;21526;-84
2022/06/18 08:07:04;;;;;;;4.05;3.77;;;;;;;19.28;67.18;99722.80;1611485;87;21061;-84
2022/06/18 08:09:32;;;;;;;5.40;4.15;;;;;;;19.45;66.11;99729.66;1639286;87;21150;-84
2022/06/18 08:12:01;;;;;;;6.40;5.20;;;;;;;19.61;66.91;99734.33;1636168;87;21111;-85
2022/06/18 08:14:28;;;;;;;5.87;4.45;;;;;;;19.75;65.28;99728.55;1611956;89;21150;-85
2022/06/18 08:16:55;;;;;;;8.80;4.70;;;;;;;19.84;66.17;99731.93;1639205;87;21600;-85
2022/06/18 08:19:22;;;;;;;5.83;3.80;;;;;;;19.97;64.87;99727.90;1639350;87;21079;-84
2022/06/18 08:21:49;;;;;;;6.67;3.60;;;;;;;20.08;64.91;99729.83;1636518;87;21507;-83
2022/06/18 08:24:19;;;;;;;4.92;3.80;;;;;;;20.22;63.99;99725.68;1639260;87;21098;-86
2022/06/18 08:26:48;;;;;;;3.25;2.95;;;;;;;20.33;64.04;99732.45;1639264;87;21120;-85
2022/06/18 08:29:18;;;;;;;3.17;2.70;;;;;;;20.44;63.14;99727.66;1639288;87;21161;-84
2022/06/18 08:31:47;;;;;;;2.33;2.05;;;;;;;20.50;60.75;99733.06;1639558;87;21024;-84
2022/06/18 08:34:13;;;;;;;5.22;2.72;;;;;;;20.49;60.88;99731.34;1639266;87;21091;-83
2022/06/18 08:36:40;;;;;;;7.25;2.47;;;;;;;20.53;60.07;99732.84;1639182;87;21062;-81
2022/06/18 08:39:07;;;;;;;2.80;2.33;;;;;;;20.58;59.22;99723.52;1639260;87;21113;-84
2022/06/18 08:41:54;;;;;;;4.30;2.27;;;;;;;20.71;61.17;99726.19;1639218;87;21185;-82
2022/06/18 08:44:41;;;;;;;2.85;2.22;;;;;;;20.87;59.05;99717.02;1610584;89;21072;-82
2022/06/18 08:48:05;;;;;;;3.52;2.30;;;;;;;21.01;59.19;99714.65;1639060;87;21153;-82
2022/06/18 08:50:56;;;;;;;2.55;2.20;;;;;;;21.19;59.44;99713.76;1574649;90;21118;-85
2022/06/18 08:53:59;;;;;;;3.15;2.00;;;;;;;21.32;57.54;99715.38;1534275;92;21131;-84
2022/06/18 08:56:39;;;;;;;4.53;1.85;;;;;;;21.39;57.57;99705.05;1617358;88;21098;-84
2022/06/18 08:59:46;;;;;;;2.83;1.98;;;;;;;21.52;57.30;99709.02;1612300;88;21027;-83
2022/06/18 09:02:39;;;;;;;6.03;2.10;;;;;;;21.64;57.79;99715.25;1617209;88;21103;-83
2022/06/18 09:05:33;;;;;;;5.40;2.08;;;;;;;21.83;56.59;99707.47;1646683;87;21105;-85
2022/06/18 09:08:37;;;;;;;1.60;1.50;;;;;;;22.05;55.10;99709.80;1646838;87;21559;-84
2022/06/18 09:11:30;;;;;;;3.17;1.93;;;;;;;22.23;54.21;99719.05;1646798;87;21117;-84
2022/06/18 09:14:10;;;;;;;3.15;2.25;;;;;;;22.45;54.38;99718.69;1646695;87;21145;-83
2022/06/18 09:16:47;;;;;;;2.80;1.87;;;;;;;22.63;54.02;99721.22;1646604;87;21096;-83
2022/06/18 09:19:18;;;;;;;1.80;1.70;;;;;;;22.76;52.71;99717.52;1647086;87;21698;-82
2022/06/18 09:21:56;;;;;;;1.90;1.67;;;;;;;22.84;52.67;99716.40;1646651;87;22507;-85
2022/06/18 09:24:39;;;;;;;4.50;1.67;;;;;;;22.90;51.06;99713.22;1617683;88;21548;-84
2022/06/18 09:27:12;;;;;;;2.83;1.15;;;;;;;22.96;51.23;99719.42;1617261;88;32671;-81
2022/06/18 09:30:02;;;;;;;4.25;1.30;;;;;;;23.02;49.56;99711.84;1615859;88;21169;-81
2022/06/18 09:32:45;;;;;;;2.22;1.25;;;;;;;23.04;49.88;99717.92;1617580;88;21137;-84
2022/06/18 09:35:32;;;;;;;4.57;1.50;;;;;;;23.10;48.74;99716.08;1618148;88;21134;-86
2022/06/18 09:38:05;;;;;;;2.12;1.55;;;;;;;23.16;48.56;99707.03;1616944;88;21070;-82
2022/06/18 09:40:39;;;;;;;2.40;1.55;;;;;;;23.16;49.02;99707.03;1617667;88;21090;-83
2022/06/18 09:43:49;;;;;;;1.90;1.17;;;;;;;23.19;49.25;99703.25;1617253;88;21656;-85
2022/06/18 09:46:19;;;;;;;1.40;1.30;;;;;;;23.24;49.05;99707.73;1617644;88;21687;-85
2022/06/18 09:48:46;;;;;;;3.02;1.17;;;;;;;23.27;49.18;99708.82;1617475;88;21928;-85
2022/06/18 09:51:26;;;;;;;1.92;1.37;;;;;;;23.24;48.17;99705.05;1617390;88;22146;-84
2022/06/18 09:53:52;;;;;;;3.98;1.47;;;;;;;23.11;47.42;99719.14;1639025;87;21126;-85
2022/06/18 09:56:26;;;;;;;3.45;1.80;;;;;;;22.96;47.54;99719.42;1638672;87;21095;-84
2022/06/18 09:59:03;;;;;;;4.25;1.72;;;;;;;22.79;48.77;99713.25;1643654;86;21082;-83
2022/06/18 10:01:42;;;;;;;3.20;2.00;;;;;;;22.55;50.95;99720.98;1611575;89;21815;-83
2022/06/18 10:06:57;;;;;;;5.22;1.85;;;;;;;22.34;52.73;99710.19;1636002;87;21110;-84
2022/06/18 10:09:39;;;;;;;4.80;2.02;;;;;;;22.29;53.90;99712.36;1639665;87;21088;-83
2022/06/18 10:12:26;;;;;;;2.47;1.92;;;;;;;22.34;53.70;99712.00;1639248;87;21138;-84
2022/06/18 10:14:56;;;;;;;4.55;2.17;;;;;;;22.41;52.33;99710.55;1636353;87;21136;-84
2022/06/18 10:17:31;;;;;;;4.28;1.75;;;;;;;22.46;52.26;99717.73;1639205;87;21066;-83
2022/06/18 10:20:29;;;;;;;1.42;1.30;;;;;;;22.52;52.90;99718.55;1624956;87;21651;-86
2022/06/18 10:23:23;;;;;;;5.00;1.02;;;;;;;22.59;50.98;99711.73;1639304;87;21106;-82
2022/06/18 10:26:12;;;;;;;2.83;1.02;;;;;;;22.70;47.80;99699.27;1639650;87;21146;-83
2022/06/18 10:29:02;;;;;;;2.72;1.15;;;;;;;22.89;47.73;99703.95;1595326;87;21160;-84
2022/06/18 10:31:47;;;;;;;1.27;1.17;;;;;;;23.03;47.28;99699.61;1639209;87;21166;-83
2022/06/18 10:34:30;;;;;;;5.10;1.10;;;;;;;23.15;47.27;99689.73;1639152;87;21043;-83
2022/06/18 10:37:49;;;;;;;2.27;1.50;;;;;;;23.19;47.99;99694.69;1614884;87;21098;-82
2022/06/18 10:40:39;;;;;;;1.40;1.30;;;;;;;23.17;48.25;99697.16;1612802;88;21129;-85
2022/06/18 10:43:30;;;;;;;3.62;1.27;;;;;;;23.08;48.88;99698.80;1612756;88;21142;-83
2022/06/18 10:46:06;;;;;;;2.17;1.60;;;;;;;23.05;48.55;99710.22;1613083;88;21134;-82
2022/06/18 10:48:32;;;;;;;3.15;1.80;;;;;;;22.99;48.20;99711.09;1612916;88;21154;-83
2022/06/18 10:51:00;;;;;;;1.80;1.70;;;;;;;22.91;48.98;99706.85;1613141;88;21138;-82
2022/06/18 10:53:33;;;;;;;4.22;1.80;;;;;;;22.89;49.22;99712.00;1612622;88;21490;-85
2022/06/18 10:56:04;;;;;;;3.27;1.50;;;;;;;22.76;49.28;99707.66;1612856;88;21509;-84
2022/06/18 10:58:30;;;;;;;3.27;1.70;;;;;;;22.59;49.05;99714.41;1612959;88;21079;-83
2022/06/18 11:01:07;;;;;;;4.03;1.42;;;;;;;22.46;49.41;99715.05;1612686;88;21487;-79
2022/06/18 11:03:35;;;;;;;2.60;1.50;;;;;;;22.38;49.64;99708.11;1613035;88;21102;-84
2022/06/18 11:06:04;;;;;;;4.53;1.32;;;;;;;22.33;49.77;99702.27;1613307;88;21616;-81
2022/06/18 11:08:33;;;;;;;1.30;1.20;;;;;;;22.35;49.77;99705.67;1616277;88;21096;-82
2022/06/18 11:11:09;;;;;;;5.25;1.62;;;;;;;22.38;50.29;99706.77;1612707;88;21040;-84
2022/06/18 11:13:39;;;;;;;1.70;1.60;;;;;;;22.44;49.59;99707.59;1613118;88;21051;-83
2022/06/18 11:16:23;;;;;;;3.02;1.80;;;;;;;22.44;49.33;99708.94;1612939;88;21071;-84
2022/06/18 11:19:02;;;;;;;6.12;1.92;;;;;;;22.44;48.48;99706.25;1612974;88;21098;-85
2022/06/18 11:21:43;;;;;;;1.37;1.20;;;;;;;22.38;48.78;99703.59;1612900;88;21148;-84
2022/06/18 11:24:35;;;;;;;1.00;1.00;;;;;;;22.43;49.73;99715.29;1611737;88;21724;-83
2022/06/18 11:27:06;;;;;;;1.50;1.07;;;;;;;22.60;49.68;99710.73;1612782;88;21106;-86
2022/06/18 11:29:38;;;;;;;3.83;1.32;;;;;;;22.81;48.56;99700.08;1613184;88;21154;-83
2022/06/18 11:32:19;;;;;;;2.15;1.30;;;;;;;23.02;49.60;99709.16;1612884;88;21147;-84
2022/06/18 11:34:49;;;;;;;1.20;1.10;;;;;;;23.19;49.37;99707.27;1594423;88;21242;-84
2022/06/18 11:37:27;;;;;;;3.33;1.40;;;;;;;23.33;48.65;99702.94;1594894;88;21110;-83
2022/06/18 11:40:03;;;;;;;1.35;1.25;;;;;;;23.42;48.14;99703.11;1612813;88;22344;-84
2022/06/18 11:42:35;;;;;;;1.82;1.40;;;;;;;23.47;47.52;99700.88;1612930;87;21162;-81
2022/06/18 11:45:13;;;;;;;2.55;1.50;;;;;;;23.46;47.16;99704.57;1612784;88;21173;-83
2022/06/18 11:47:49;;;;;;;2.30;1.20;;;;;;;23.43;47.26;99699.45;1612523;88;21201;-84
2022/06/18 11:50:36;;;;;;;4.28;1.30;;;;;;;23.49;46.84;99693.58;1612691;88;21122;-81
2022/06/18 11:53:30;;;;;;;4.37;1.30;;;;;;;23.53;46.56;99697.68;1615071;88;21166;-84
2022/06/18 11:55:57;;;;;;;4.53;1.10;;;;;;;23.54;46.33;99692.18;1620156;88;21027;-81
2022/06/18 11:58:44;;;;;;;1.40;1.10;;;;;;;23.54;45.68;99690.84;1620037;88;21061;-82
2022/06/18 12:01:35;;;;;;;4.50;1.20;;;;;;;23.53;45.55;99697.68;1620077;88;22092;-85
2022/06/18 12:04:23;;;;;;;0.80;0.78;;;;;;;23.50;46.19;99688.55;1619919;88;21122;-82
2022/06/18 12:07:05;;;;;;;2.37;1.00;;;;;;;23.50;45.27;99696.13;1627053;87;21071;-85
2022/06/18 12:09:32;;;;;;;1.80;1.17;;;;;;;23.53;45.58;99700.37;1645217;87;21083;-82
2022/06/18 12:12:27;;;;;;;4.47;2.02;;;;;;;23.59;45.55;99693.61;1674236;85;21120;-83
2022/06/18 12:15:07;;;;;;;3.65;2.50;;;;;;;23.61;45.82;99692.50;1701700;84;21666;-81